createdAt,value
2023-05-01T00:01:38.028Z,100119.60
2023-05-01T00:05:27.125Z,100117.40
2023-05-01T00:08:46.662Z,100121.20
2023-05-01T00:12:35.872Z,100123.80
2023-05-01T00:16:24.161Z,100126.20
2023-05-01T00:19:53.629Z,100122.60
2023-05-01T00:23:33.820Z,100121.60
2023-05-01T00:26:31.409Z,100121.80
2023-05-01T00:30:18.677Z,100124.00
2023-05-01T00:34:06.432Z,100127.60
2023-05-01T00:37:55.927Z,100134.80
2023-05-01T00:41:45.199Z,100132.40
2023-05-01T00:45:34.520Z,100131.00
2023-05-01T00:49:22.435Z,100128.60
2023-05-01T00:53:11.520Z,100125.20
2023-05-01T00:57:00.930Z,100126.80
2023-05-01T01:00:50.632Z,100131.20
2023-05-01T01:04:41.970Z,100132.00
2023-05-01T01:08:23.398Z,100138.00
2023-05-01T01:12:16.414Z,100145.60
2023-05-01T01:15:46.486Z,100146.00
2023-05-01T01:19:39.664Z,100148.80
2023-05-01T01:23:21.602Z,100149.40
2023-05-01T01:27:18.707Z,100152.80
2023-05-01T01:31:24.153Z,100156.00
2023-05-01T01:35:25.055Z,100150.20
2023-05-01T01:38:55.392Z,100147.00
2023-05-01T01:42:49.655Z,100149.80
2023-05-01T01:46:37.569Z,100149.60
2023-05-01T01:50:08.115Z,100154.20
2023-05-01T01:53:58.067Z,100162.60
2023-05-01T01:57:36.313Z,100161.20
2023-05-01T02:01:17.596Z,100164.80
2023-05-01T02:05:00.233Z,100164.40
2023-05-01T02:08:50.765Z,100161.00
2023-05-01T02:12:39.612Z,100164.60
2023-05-01T02:16:21.552Z,100167.00
2023-05-01T02:20:00.635Z,100164.60
2023-05-01T02:23:50.003Z,100168.80
2023-05-01T02:26:50.355Z,100171.00
2023-05-01T02:29:18.707Z,100166.00
2023-05-01T02:31:47.143Z,100172.20
2023-05-01T02:34:17.863Z,100168.20
2023-05-01T02:36:48.403Z,100168.00
2023-05-01T02:39:16.835Z,100173.80
2023-05-01T02:41:47.894Z,100178.80
2023-05-01T02:44:19.323Z,100185.40
2023-05-01T02:46:47.508Z,100183.00
2023-05-01T02:49:15.774Z,100182.80
2023-05-01T02:51:44.379Z,100184.20
2023-05-01T02:54:13.100Z,100186.60
2023-05-01T02:56:42.484Z,100191.00
2023-05-01T02:59:16.696Z,100190.40
2023-05-01T03:01:50.320Z,100196.80
2023-05-01T03:04:18.799Z,100193.40
2023-05-01T03:06:47.342Z,100191.80
2023-05-01T03:09:18.026Z,100201.20
2023-05-01T03:11:49.473Z,100198.00
2023-05-01T03:14:19.896Z,100204.40
2023-05-01T03:16:49.108Z,100205.40
2023-05-01T03:19:22.529Z,100209.00
2023-05-01T03:21:58.381Z,100212.00
2023-05-01T03:24:27.096Z,100212.00
2023-05-01T03:27:58.468Z,100219.20
2023-05-01T03:31:48.730Z,100219.80
2023-05-01T03:35:29.029Z,100220.80
2023-05-01T03:39:18.097Z,100225.00
2023-05-01T03:43:06.702Z,100219.20
2023-05-01T03:46:55.867Z,100227.40
2023-05-01T03:50:40.059Z,100233.60
2023-05-01T03:54:18.930Z,100233.00
2023-05-01T03:57:23.403Z,100237.60
2023-05-01T03:59:52.023Z,100239.20
2023-05-01T04:02:20.838Z,100241.80
2023-05-01T04:04:57.637Z,100245.00
2023-05-01T04:07:38.412Z,100251.40
2023-05-01T04:10:17.037Z,100250.00
2023-05-01T04:12:51.516Z,100250.40
2023-05-01T04:15:23.916Z,100257.60
2023-05-01T04:17:52.854Z,100258.60
2023-05-01T04:20:35.781Z,100263.80
2023-05-01T04:23:09.469Z,100264.00
2023-05-01T04:25:47.645Z,100266.60
2023-05-01T04:28:18.166Z,100271.60
2023-05-01T04:30:46.544Z,100270.60
2023-05-01T04:33:17.935Z,100272.40
2023-05-01T04:35:49.284Z,100276.80
2023-05-01T04:38:17.843Z,100284.60
2023-05-01T04:40:52.383Z,100280.00
2023-05-01T04:43:26.761Z,100284.60
2023-05-01T04:46:00.725Z,100276.60
2023-05-01T04:48:36.869Z,100276.40
2023-05-01T04:51:06.111Z,100279.80
2023-05-01T04:53:35.337Z,100283.00
2023-05-01T04:56:07.719Z,100284.60
2023-05-01T04:58:38.906Z,100289.20
2023-05-01T05:01:11.227Z,100292.20
2023-05-01T05:03:40.741Z,100295.80
2023-05-01T05:06:10.087Z,100299.20
2023-05-01T05:08:41.396Z,100300.40
2023-05-01T05:11:13.195Z,100302.60
2023-05-01T05:13:49.671Z,100306.20
2023-05-01T05:16:29.333Z,100310.20
2023-05-01T05:19:02.557Z,100317.20
2023-05-01T05:21:35.740Z,100316.20
2023-05-01T05:24:06.753Z,100324.40
2023-05-01T05:26:38.293Z,100326.80
2023-05-01T05:29:07.431Z,100334.00
2023-05-01T05:31:35.737Z,100332.20
2023-05-01T05:34:06.788Z,100339.80
2023-05-01T05:36:36.082Z,100340.00
2023-05-01T05:39:07.343Z,100348.00
2023-05-01T05:41:36.246Z,100353.40
2023-05-01T05:44:04.590Z,100359.20
2023-05-01T05:46:33.043Z,100365.60
2023-05-01T05:49:01.987Z,100366.40
2023-05-01T05:51:39.912Z,100368.40
2023-05-01T05:54:12.299Z,100372.20
2023-05-01T05:56:43.562Z,100368.20
2023-05-01T05:59:17.844Z,100371.60
2023-05-01T06:01:49.438Z,100372.80
2023-05-01T06:04:17.551Z,100375.40
2023-05-01T06:06:45.849Z,100374.80
2023-05-01T06:09:15.474Z,100382.60
2023-05-01T06:11:46.377Z,100386.40
2023-05-01T06:14:17.806Z,100397.60
2023-05-01T06:16:47.023Z,100396.40
2023-05-01T06:19:17.297Z,100399.80
2023-05-01T06:21:51.668Z,100400.00
2023-05-01T06:24:28.171Z,100400.00
2023-05-01T06:27:00.861Z,100397.40
2023-05-01T06:29:29.933Z,100400.00
2023-05-01T06:31:58.492Z,100400.20
2023-05-01T06:34:27.668Z,100398.00
2023-05-01T06:36:56.543Z,100401.60
2023-05-01T06:39:25.115Z,100405.40
2023-05-01T06:42:01.414Z,100408.20
2023-05-01T06:44:34.923Z,100412.40
2023-05-01T06:47:12.072Z,100410.20
2023-05-01T06:50:32.302Z,100416.40
2023-05-01T06:53:53.152Z,100415.80
2023-05-01T06:57:24.596Z,100417.60
2023-05-01T07:01:03.125Z,100423.80
2023-05-01T07:04:52.529Z,100425.40
2023-05-01T07:08:34.833Z,100428.20
2023-05-01T07:12:25.001Z,100436.40
2023-05-01T07:16:14.350Z,100439.80
2023-05-01T07:19:18.372Z,100433.00
2023-05-01T07:21:49.463Z,100436.00
2023-05-01T07:24:23.914Z,100438.80
2023-05-01T07:26:52.424Z,100434.00
2023-05-01T07:29:22.986Z,100435.00
2023-05-01T07:32:01.515Z,100443.20
2023-05-01T07:34:31.482Z,100439.40
2023-05-01T07:37:02.211Z,100437.80
2023-05-01T07:39:42.017Z,100444.40
2023-05-01T07:42:12.833Z,100456.40
2023-05-01T07:44:41.450Z,100457.80
2023-05-01T07:47:13.026Z,100462.00
2023-05-01T07:49:47.893Z,100465.00
2023-05-01T07:52:26.661Z,100469.60
2023-05-01T07:54:58.278Z,100474.40
2023-05-01T07:57:26.896Z,100473.80
2023-05-01T08:00:01.141Z,100479.00
2023-05-01T08:02:32.229Z,100482.00
2023-05-01T08:05:04.217Z,100484.40
2023-05-01T08:07:35.870Z,100483.20
2023-05-01T08:10:04.603Z,100488.20
2023-05-01T08:12:36.422Z,100484.20
2023-05-01T08:15:08.688Z,100482.20
2023-05-01T08:17:40.134Z,100485.00
2023-05-01T08:20:12.945Z,100489.40
2023-05-01T08:22:43.273Z,100495.40
2023-05-01T08:25:25.332Z,100491.60
2023-05-01T08:27:53.476Z,100494.60
2023-05-01T08:30:24.368Z,100493.20
2023-05-01T08:32:56.006Z,100496.20
2023-05-01T08:35:24.322Z,100497.20
2023-05-01T08:37:52.313Z,100493.40
2023-05-01T08:40:20.364Z,100500.60
2023-05-01T08:42:49.261Z,100503.80
2023-05-01T08:45:17.572Z,100500.40
2023-05-01T08:47:46.013Z,100498.00
2023-05-01T08:50:14.277Z,100499.40
2023-05-01T08:52:45.094Z,100497.20
2023-05-01T08:55:16.230Z,100499.20
2023-05-01T08:57:48.657Z,100504.00
2023-05-01T09:00:21.554Z,100504.80
2023-05-01T09:02:50.764Z,100502.60
2023-05-01T09:05:19.763Z,100498.80
2023-05-01T09:07:53.317Z,100497.20
2023-05-01T09:10:21.482Z,100497.40
2023-05-01T09:12:52.969Z,100493.80
2023-05-01T09:15:21.637Z,100495.20
2023-05-01T09:18:02.881Z,100490.40
2023-05-01T09:20:31.958Z,100493.80
2023-05-01T09:23:02.969Z,100494.60
2023-05-01T09:25:31.515Z,100495.00
2023-05-01T09:27:59.597Z,100499.60
2023-05-01T09:30:38.141Z,100493.00
2023-05-01T09:33:10.232Z,100493.00
2023-05-01T09:35:55.198Z,100503.80
2023-05-01T09:38:24.919Z,100499.60
2023-05-01T09:40:53.899Z,100492.40
2023-05-01T09:43:28.777Z,100487.60
2023-05-01T09:46:09.347Z,100494.60
2023-05-01T09:48:38.182Z,100494.60
2023-05-01T09:51:33.234Z,100490.00
2023-05-01T09:54:02.719Z,100489.60
2023-05-01T09:56:32.280Z,100478.20
2023-05-01T09:59:16.493Z,100490.60
2023-05-01T10:01:46.540Z,100489.40
2023-05-01T10:04:15.046Z,100483.60
2023-05-01T10:06:43.790Z,100484.40
2023-05-01T10:09:17.743Z,100482.00
2023-05-01T10:11:53.862Z,100479.20
2023-05-01T10:14:24.310Z,100483.40
2023-05-01T10:16:53.431Z,100479.80
2023-05-01T10:19:22.189Z,100486.40
2023-05-01T10:21:50.857Z,100489.00
2023-05-01T10:24:28.664Z,100483.80
2023-05-01T10:26:59.804Z,100487.40
2023-05-01T10:29:28.290Z,100486.40
2023-05-01T10:31:56.758Z,100481.80
2023-05-01T10:34:28.489Z,100478.80
2023-05-01T10:37:12.998Z,100482.00
2023-05-01T10:39:41.323Z,100479.20
2023-05-01T10:42:14.185Z,100489.60
2023-05-01T10:44:42.626Z,100484.20
2023-05-01T10:47:30.880Z,100472.80
2023-05-01T10:50:10.063Z,100469.80
2023-05-01T10:53:12.712Z,100472.60
2023-05-01T10:55:43.634Z,100473.80
2023-05-01T10:58:12.518Z,100477.00
2023-05-01T11:00:40.856Z,100478.60
2023-05-01T11:03:24.631Z,100473.80
2023-05-01T11:06:04.820Z,100472.40
2023-05-01T11:08:34.168Z,100473.20
2023-05-01T11:11:23.523Z,100474.60
2023-05-01T11:14:08.765Z,100470.60
2023-05-01T11:16:40.826Z,100475.40
2023-05-01T11:19:30.687Z,100473.80
2023-05-01T11:21:59.176Z,100468.00
2023-05-01T11:24:33.167Z,100469.20
2023-05-01T11:27:01.429Z,100471.20
2023-05-01T11:29:35.353Z,100471.00
2023-05-01T11:32:06.104Z,100472.40
2023-05-01T11:34:38.064Z,100478.80
2023-05-01T11:37:06.213Z,100463.20
2023-05-01T11:39:37.906Z,100468.40
2023-05-01T11:42:11.383Z,100465.40
2023-05-01T11:44:39.642Z,100456.00
2023-05-01T11:47:09.169Z,100457.00
2023-05-01T11:49:37.378Z,100458.80
2023-05-01T11:52:05.882Z,100458.40
2023-05-01T11:54:49.729Z,100453.20
2023-05-01T11:57:20.260Z,100441.60
2023-05-01T11:59:48.569Z,100444.00
2023-05-01T12:02:20.454Z,100441.20
2023-05-01T12:04:48.950Z,100446.40
2023-05-01T12:07:26.185Z,100438.80
2023-05-01T12:09:54.629Z,100442.40
2023-05-01T12:12:22.972Z,100435.60
2023-05-01T12:14:51.173Z,100442.40
2023-05-01T12:17:19.459Z,100439.40
2023-05-01T12:19:51.258Z,100433.00
2023-05-01T12:22:19.658Z,100438.40
2023-05-01T12:24:52.902Z,100434.60
2023-05-01T12:27:21.211Z,100427.20
2023-05-01T12:29:49.298Z,100436.20
2023-05-01T12:32:17.775Z,100428.20
2023-05-01T12:34:46.174Z,100424.80
2023-05-01T12:37:14.279Z,100423.40
2023-05-01T12:39:44.750Z,100417.80
2023-05-01T12:42:14.282Z,100425.00
2023-05-01T12:44:44.949Z,100420.60
2023-05-01T12:47:13.360Z,100415.00
2023-05-01T12:49:44.789Z,100415.60
2023-05-01T12:52:12.792Z,100414.80
2023-05-01T12:54:44.047Z,100420.40
2023-05-01T12:57:14.990Z,100418.80
2023-05-01T12:59:44.503Z,100420.60
2023-05-01T13:02:15.784Z,100410.20
2023-05-01T13:04:50.142Z,100410.00
2023-05-01T13:07:19.296Z,100404.60
2023-05-01T13:09:59.171Z,100411.20
2023-05-01T13:12:27.969Z,100409.40
2023-05-01T13:14:58.700Z,100409.00
2023-05-01T13:17:33.779Z,100411.00
2023-05-01T13:20:05.699Z,100411.40
2023-05-01T13:22:47.602Z,100411.00
2023-05-01T13:25:17.549Z,100409.00
2023-05-01T13:27:54.406Z,100414.80
2023-05-01T13:30:31.788Z,100415.40
2023-05-01T13:33:00.710Z,100411.00
2023-05-01T13:35:31.550Z,100413.00
2023-05-01T13:38:00.724Z,100410.60
2023-05-01T13:40:32.226Z,100415.20
2023-05-01T13:43:00.729Z,100415.40
2023-05-01T13:45:29.078Z,100416.20
2023-05-01T13:47:57.084Z,100420.40
2023-05-01T13:50:25.277Z,100419.60
2023-05-01T13:52:53.602Z,100415.00
2023-05-01T13:55:24.862Z,100415.00
2023-05-01T13:57:55.801Z,100420.40
2023-05-01T14:00:23.859Z,100418.60
2023-05-01T14:02:54.119Z,100417.80
2023-05-01T14:05:23.995Z,100420.20
2023-05-01T14:07:56.899Z,100414.00
2023-05-01T14:10:27.916Z,100419.40
2023-05-01T14:12:57.732Z,100418.60
2023-05-01T14:15:29.742Z,100414.20
2023-05-01T14:18:01.152Z,100417.00
2023-05-01T14:20:30.003Z,100413.20
2023-05-01T14:22:59.196Z,100415.20
2023-05-01T14:25:31.743Z,100412.40
2023-05-01T14:28:01.172Z,100417.00
2023-05-01T14:30:33.408Z,100418.80
2023-05-01T14:33:02.594Z,100413.60
2023-05-01T14:35:30.762Z,100416.20
2023-05-01T14:38:06.907Z,100411.60
2023-05-01T14:40:35.850Z,100412.80
2023-05-01T14:43:04.280Z,100411.20
2023-05-01T14:45:32.721Z,100409.00
2023-05-01T14:48:01.007Z,100409.00
2023-05-01T14:50:31.468Z,100405.40
2023-05-01T14:53:00.726Z,100407.60
2023-05-01T14:55:32.075Z,100408.80
2023-05-01T14:58:01.194Z,100407.40
2023-05-01T15:00:29.502Z,100410.00
2023-05-01T15:02:58.808Z,100402.00
2023-05-01T15:05:28.362Z,100412.00
2023-05-01T15:07:56.865Z,100411.80
2023-05-01T15:10:24.969Z,100412.40
2023-05-01T15:12:53.789Z,100415.20
2023-05-01T15:15:21.994Z,100409.60
2023-05-01T15:17:50.586Z,100415.60
2023-05-01T15:20:18.863Z,100415.80
2023-05-01T15:22:47.095Z,100415.60
2023-05-01T15:25:16.507Z,100414.40
2023-05-01T15:27:50.407Z,100409.40
2023-05-01T15:30:18.983Z,100410.00
2023-05-01T15:32:50.328Z,100410.20
2023-05-01T15:35:21.761Z,100414.20
2023-05-01T15:37:52.795Z,100409.80
2023-05-01T15:40:21.032Z,100413.60
2023-05-01T15:42:49.081Z,100414.40
2023-05-01T15:45:17.215Z,100417.60
2023-05-01T15:47:45.375Z,100413.60
2023-05-01T15:50:16.458Z,100410.80
2023-05-01T15:52:57.612Z,100410.60
2023-05-01T15:55:25.766Z,100404.40
2023-05-01T15:57:53.941Z,100402.40
2023-05-01T16:00:22.349Z,100406.60
2023-05-01T16:02:50.698Z,100407.20
2023-05-01T16:05:24.979Z,100405.60
2023-05-01T16:08:01.038Z,100406.60
2023-05-01T16:10:29.125Z,100404.60
2023-05-01T16:13:07.136Z,100408.00
2023-05-01T16:15:37.629Z,100404.80
2023-05-01T16:18:06.333Z,100404.40
2023-05-01T16:20:43.433Z,100402.60
2023-05-01T16:23:12.314Z,100404.60
2023-05-01T16:25:43.598Z,100411.60
2023-05-01T16:28:14.336Z,100407.40
2023-05-01T16:30:42.639Z,100411.00
2023-05-01T16:33:18.572Z,100414.40
2023-05-01T16:35:50.445Z,100422.60
2023-05-01T16:38:21.534Z,100417.60
2023-05-01T16:40:49.453Z,100424.00
2023-05-01T16:43:17.468Z,100422.20
2023-05-01T16:45:47.150Z,100424.20
2023-05-01T16:48:19.257Z,100430.60
2023-05-01T16:50:47.295Z,100430.00
2023-05-01T16:53:15.397Z,100426.80
2023-05-01T16:55:43.932Z,100428.60
2023-05-01T16:58:12.193Z,100428.00
2023-05-01T17:00:41.263Z,100429.80
2023-05-01T17:03:09.325Z,100428.00
2023-05-01T17:05:37.847Z,100429.60
2023-05-01T17:08:06.271Z,100430.00
2023-05-01T17:10:38.496Z,100435.40
2023-05-01T17:13:09.063Z,100445.00
2023-05-01T17:15:40.358Z,100438.40
2023-05-01T17:18:15.666Z,100446.60
2023-05-01T17:20:44.079Z,100450.20
2023-05-01T17:23:18.325Z,100444.00
2023-05-01T17:25:49.740Z,100446.80
2023-05-01T17:28:19.156Z,100448.80
2023-05-01T17:30:55.587Z,100447.80
2023-05-01T17:33:29.186Z,100453.20
2023-05-01T17:36:00.071Z,100459.40
2023-05-01T17:38:28.633Z,100459.20
2023-05-01T17:41:03.011Z,100461.80
2023-05-01T17:43:33.814Z,100465.00
2023-05-01T17:46:02.432Z,100463.00
2023-05-01T17:48:31.007Z,100465.60
2023-05-01T17:51:18.256Z,100467.80
2023-05-01T17:53:46.866Z,100470.60
2023-05-01T17:56:28.360Z,100469.00
2023-05-01T17:59:11.884Z,100469.40
2023-05-01T18:01:45.331Z,100468.20
2023-05-01T18:04:22.493Z,100471.60
2023-05-01T18:06:56.448Z,100472.40
2023-05-01T18:09:24.867Z,100478.00
2023-05-01T18:11:53.117Z,100478.20
2023-05-01T18:14:25.185Z,100484.20
2023-05-01T18:16:53.454Z,100489.00
2023-05-01T18:19:21.780Z,100487.40
2023-05-01T18:21:50.104Z,100488.60
2023-05-01T18:24:18.798Z,100491.80
2023-05-01T18:26:59.574Z,100494.00
2023-05-01T18:29:27.858Z,100491.40
2023-05-01T18:32:01.579Z,100494.00
2023-05-01T18:34:29.851Z,100496.00
2023-05-01T18:36:58.402Z,100499.40
2023-05-01T18:39:40.628Z,100502.80
2023-05-01T18:42:10.980Z,100509.20
2023-05-01T18:44:44.758Z,100513.40
2023-05-01T18:47:12.966Z,100516.00
2023-05-01T18:49:41.401Z,100511.40
2023-05-01T18:52:10.199Z,100513.60
2023-05-01T18:54:46.384Z,100509.80
2023-05-01T18:57:17.114Z,100514.80
2023-05-01T18:59:45.531Z,100518.00
2023-05-01T19:02:19.919Z,100516.60
2023-05-01T19:04:57.448Z,100520.40
2023-05-01T19:07:28.585Z,100528.00
2023-05-01T19:09:59.430Z,100528.00
2023-05-01T19:12:31.373Z,100527.20
2023-05-01T19:14:59.572Z,100528.00
2023-05-01T19:17:28.385Z,100532.60
2023-05-01T19:19:59.116Z,100536.80
2023-05-01T19:22:36.118Z,100534.60
2023-05-01T19:25:08.434Z,100533.60
2023-05-01T19:27:37.372Z,100537.40
2023-05-01T19:30:28.856Z,100538.00
2023-05-01T19:33:05.160Z,100540.80
2023-05-01T19:35:38.712Z,100535.60
2023-05-01T19:38:12.827Z,100541.40
2023-05-01T19:40:42.459Z,100533.80
2023-05-01T19:43:13.599Z,100536.40
2023-05-01T19:45:42.781Z,100536.40
2023-05-01T19:48:16.525Z,100535.00
2023-05-01T19:50:50.992Z,100536.60
2023-05-01T19:53:27.822Z,100539.40
2023-05-01T19:56:13.023Z,100543.60
2023-05-01T19:58:46.653Z,100544.40
2023-05-01T20:01:18.122Z,100545.20
2023-05-01T20:03:51.391Z,100544.20
2023-05-01T20:06:20.076Z,100545.20
2023-05-01T20:08:54.296Z,100548.20
2023-05-01T20:11:28.000Z,100548.20
2023-05-01T20:14:03.472Z,100546.00
2023-05-01T20:16:31.977Z,100546.60
2023-05-01T20:19:10.309Z,100548.40
2023-05-01T20:21:39.218Z,100549.40
2023-05-01T20:24:10.340Z,100549.60
2023-05-01T20:26:39.030Z,100555.00
2023-05-01T20:29:13.248Z,100549.40
2023-05-01T20:31:42.183Z,100551.60
2023-05-01T20:34:10.663Z,100554.80
2023-05-01T20:36:41.545Z,100554.40
2023-05-01T20:39:18.831Z,100553.00
2023-05-01T20:41:50.549Z,100555.20
2023-05-01T20:44:47.803Z,100555.20
2023-05-01T20:47:18.493Z,100558.00
2023-05-01T20:50:17.755Z,100553.80
2023-05-01T20:52:52.668Z,100556.60
2023-05-01T20:55:30.094Z,100557.80
2023-05-01T20:58:08.586Z,100555.40
2023-05-01T21:00:46.379Z,100556.00
2023-05-01T21:03:20.154Z,100555.60
2023-05-01T21:06:00.609Z,100557.20
2023-05-01T21:08:34.713Z,100565.00
2023-05-01T21:11:05.821Z,100564.00
2023-05-01T21:13:39.111Z,100562.40
2023-05-01T21:16:10.660Z,100563.20
2023-05-01T21:18:39.519Z,100563.20
2023-05-01T21:21:13.518Z,100559.60
2023-05-01T21:23:43.835Z,100563.40
2023-05-01T21:26:15.076Z,100565.00
2023-05-01T21:28:43.814Z,100558.80
2023-05-01T21:31:17.385Z,100558.20
2023-05-01T21:33:50.595Z,100559.60
2023-05-01T21:36:24.736Z,100563.20
2023-05-01T21:38:56.665Z,100561.20
2023-05-01T21:41:24.811Z,100558.60
2023-05-01T21:43:56.381Z,100566.00
2023-05-01T21:46:24.884Z,100573.40
2023-05-01T21:49:02.829Z,100574.60
2023-05-01T21:51:34.474Z,100578.80
2023-05-01T21:54:05.837Z,100583.00
2023-05-01T21:56:37.479Z,100578.20
2023-05-01T21:59:23.653Z,100586.00
2023-05-01T22:02:15.583Z,100584.20
2023-05-01T22:04:50.837Z,100581.80
2023-05-01T22:07:22.021Z,100584.20
2023-05-01T22:10:02.707Z,100579.00
2023-05-01T22:12:33.938Z,100581.80
2023-05-01T22:15:33.078Z,100579.40
2023-05-01T22:18:01.612Z,100578.80
2023-05-01T22:20:32.980Z,100579.00
2023-05-01T22:23:07.503Z,100581.40
2023-05-01T22:25:35.472Z,100583.20
2023-05-01T22:28:05.692Z,100582.00
2023-05-01T22:30:44.285Z,100582.40
2023-05-01T22:33:47.841Z,100578.00
2023-05-01T22:36:34.762Z,100575.80
2023-05-01T22:39:20.401Z,100576.20
2023-05-01T22:42:00.028Z,100572.60
2023-05-01T22:44:36.577Z,100574.20
2023-05-01T22:47:27.202Z,100575.40
2023-05-01T22:50:07.304Z,100572.60
2023-05-01T22:52:44.666Z,100570.60
2023-05-01T22:55:31.857Z,100569.40
2023-05-01T22:58:05.649Z,100572.80
2023-05-01T23:00:39.136Z,100569.40
2023-05-01T23:03:09.895Z,100571.00
2023-05-01T23:05:41.526Z,100571.40
2023-05-01T23:08:09.654Z,100573.60
2023-05-01T23:10:40.970Z,100573.80
2023-05-01T23:13:32.219Z,100574.20
2023-05-01T23:16:06.440Z,100576.40
2023-05-01T23:18:35.798Z,100574.60
2023-05-01T23:21:07.612Z,100572.00
2023-05-01T23:23:35.933Z,100571.80
2023-05-01T23:26:04.942Z,100566.80
2023-05-01T23:28:35.805Z,100565.20
2023-05-01T23:31:13.384Z,100561.80
2023-05-01T23:33:43.983Z,100560.00
2023-05-01T23:36:17.715Z,100560.00
2023-05-01T23:38:46.279Z,100565.40
2023-05-01T23:41:15.402Z,100560.60
2023-05-01T23:43:44.656Z,100557.20
2023-05-01T23:46:16.455Z,100554.80
2023-05-01T23:48:44.977Z,100557.80
2023-05-01T23:51:16.294Z,100556.20
2023-05-01T23:53:45.020Z,100558.00
2023-05-01T23:56:13.328Z,100558.00
2023-05-01T23:58:44.373Z,100551.60
